createdAt,value
2017-05-21T06:38:36.238Z,175
2017-05-21T06:39:16.854Z,175
2017-05-21T06:39:57.495Z,175
2017-05-21T06:40:38.119Z,175
2017-05-21T06:41:18.704Z,175
2017-05-21T06:41:59.318Z,175
2017-05-21T06:42:39.923Z,175
2017-05-21T06:43:20.574Z,175
2017-05-21T06:44:01.402Z,175
2017-05-21T06:44:42.100Z,180
2017-05-21T06:45:22.747Z,180
2017-05-21T06:46:03.358Z,180
2017-05-21T06:46:43.988Z,180
2017-05-21T06:47:24.906Z,180
2017-05-21T06:48:05.558Z,180
2017-05-21T06:48:46.241Z,180
2017-05-21T06:49:26.843Z,180
2017-05-21T06:50:07.507Z,180
2017-05-21T06:50:48.119Z,180
2017-05-21T06:51:28.796Z,185
2017-05-21T06:52:09.496Z,185
2017-05-21T06:52:50.334Z,185
2017-05-21T06:53:31.031Z,185
2017-05-21T06:54:11.693Z,185
2017-05-21T06:54:52.303Z,185
2017-05-21T06:55:32.999Z,190
2017-05-21T06:56:13.861Z,190
2017-05-21T06:56:54.943Z,190
2017-05-21T06:57:35.582Z,190
2017-05-21T06:58:16.529Z,190
2017-05-21T06:59:05.321Z,190
2017-05-21T06:59:50.152Z,195
2017-05-21T07:00:30.941Z,195
2017-05-21T07:01:11.546Z,195
2017-05-21T07:01:52.191Z,195
2017-05-21T07:02:32.877Z,200
2017-05-21T07:03:13.499Z,200
2017-05-21T07:03:54.084Z,200
2017-05-21T07:04:34.955Z,200
2017-05-21T07:05:15.645Z,200
2017-05-21T07:05:56.331Z,200
2017-05-21T07:06:36.930Z,205
2017-05-21T07:07:17.512Z,205
2017-05-21T07:07:58.102Z,205
2017-05-21T07:08:38.743Z,205
2017-05-21T07:09:19.312Z,205
2017-05-21T07:09:59.908Z,205
2017-05-21T07:10:40.573Z,205
2017-05-21T07:11:21.149Z,205
2017-05-21T07:12:01.760Z,210
2017-05-21T07:12:42.359Z,210
2017-05-21T07:13:22.959Z,215
2017-05-21T07:14:03.610Z,210
2017-05-21T07:14:44.177Z,215
2017-05-21T07:15:24.795Z,215
2017-05-21T07:16:05.376Z,215
2017-05-21T07:16:45.995Z,215
2017-05-21T07:17:26.590Z,215
2017-05-21T07:18:07.182Z,220
2017-05-21T07:18:47.762Z,220
2017-05-21T07:19:28.352Z,225
2017-05-21T07:20:08.965Z,225
2017-05-21T07:20:49.559Z,230
2017-05-21T07:21:30.161Z,230
2017-05-21T07:22:10.874Z,235
2017-05-21T07:22:51.438Z,245
2017-05-21T07:23:32.032Z,245
2017-05-21T07:24:12.674Z,265
2017-05-21T07:24:53.286Z,305
2017-05-21T07:25:33.869Z,605
2017-05-21T07:26:14.737Z,1145
2017-05-21T07:26:55.125Z,1735
2017-05-21T07:27:36.434Z,2150
2017-05-21T07:28:17.070Z,2150
2017-05-21T07:28:57.631Z,2105
2017-05-21T07:29:38.244Z,2175
2017-05-21T07:30:18.852Z,2270
2017-05-21T07:30:59.456Z,2300
2017-05-21T07:31:40.253Z,2315
2017-05-21T07:32:20.896Z,2210
2017-05-21T07:33:01.564Z,2190
2017-05-21T07:33:42.170Z,2125
2017-05-21T07:34:22.821Z,2085
2017-05-21T07:35:03.566Z,2080
2017-05-21T07:35:44.234Z,2090
2017-05-21T07:36:24.967Z,2020
2017-05-21T07:37:05.580Z,1875
2017-05-21T07:37:46.209Z,1680
2017-05-21T07:38:27.067Z,1510
2017-05-21T07:39:07.640Z,1465
2017-05-21T07:39:48.287Z,1455
2017-05-21T07:40:28.916Z,1530
2017-05-21T07:41:09.644Z,1720
2017-05-21T07:41:50.318Z,1855
2017-05-21T07:42:30.978Z,1995
2017-05-21T07:43:11.638Z,2120
2017-05-21T07:43:52.294Z,2150
2017-05-21T07:44:33.169Z,2190
2017-05-21T07:45:13.769Z,2280
2017-05-21T07:45:54.459Z,1890
2017-05-21T07:46:35.057Z,1125
2017-05-21T07:47:15.723Z,450
2017-05-21T07:47:56.438Z,325
2017-05-21T07:48:37.174Z,300
2017-05-21T07:49:17.920Z,290
2017-05-21T07:49:58.688Z,275
2017-05-21T07:50:39.168Z,270
2017-05-21T07:51:19.821Z,265
2017-05-21T07:52:00.427Z,260
2017-05-21T07:52:41.044Z,260
2017-05-21T07:53:21.648Z,260
2017-05-21T07:54:02.295Z,260
2017-05-21T07:54:42.902Z,260
2017-05-21T07:55:23.672Z,260
2017-05-21T07:56:04.310Z,260
2017-05-21T07:56:45.006Z,265
2017-05-21T07:57:25.528Z,265
2017-05-21T07:58:06.136Z,270
2017-05-21T07:58:46.756Z,270
2017-05-21T07:59:27.429Z,275
2017-05-21T08:00:08.039Z,280
2017-05-21T08:00:48.618Z,285
2017-05-21T08:01:29.202Z,290
2017-05-21T08:02:09.820Z,295
2017-05-21T08:02:50.410Z,310
2017-05-21T08:03:31.005Z,350
2017-05-21T08:04:11.594Z,910
2017-05-21T08:04:52.189Z,1855
2017-05-21T08:05:32.797Z,2570
2017-05-21T08:06:13.377Z,2615
2017-05-21T08:06:53.954Z,2650
2017-05-21T08:07:34.538Z,2670
2017-05-21T08:08:15.112Z,2675
2017-05-21T08:08:55.684Z,2575
2017-05-21T08:09:36.307Z,2500
2017-05-21T08:10:16.883Z,2435
2017-05-21T08:10:57.451Z,2440
2017-05-21T08:11:38.049Z,2430
2017-05-21T08:12:18.643Z,2565
2017-05-21T08:12:59.252Z,2735
2017-05-21T08:13:39.841Z,2860
2017-05-21T08:14:20.513Z,2835
2017-05-21T08:15:01.163Z,2870
2017-05-21T08:15:41.755Z,2895
2017-05-21T08:16:22.345Z,2860
2017-05-21T08:17:02.957Z,2805
2017-05-21T08:17:43.559Z,2695
2017-05-21T08:18:24.158Z,2720
2017-05-21T08:19:04.748Z,2745
2017-05-21T08:19:45.335Z,2865
2017-05-21T08:20:25.914Z,3015
2017-05-21T08:21:06.493Z,3045
2017-05-21T08:21:47.134Z,3105
2017-05-21T08:22:27.731Z,3165
2017-05-21T08:23:08.346Z,3155
2017-05-21T08:23:48.926Z,3185
2017-05-21T08:24:29.507Z,3095
2017-05-21T08:25:10.116Z,3085
2017-05-21T08:25:50.694Z,3085
2017-05-21T08:26:31.278Z,3000
2017-05-21T08:27:11.896Z,2975
2017-05-21T08:27:52.493Z,2945
2017-05-21T08:28:33.093Z,2960
2017-05-21T08:29:13.679Z,3030
2017-05-21T08:29:54.278Z,3035
2017-05-21T08:30:34.865Z,2970
2017-05-21T08:31:15.457Z,2965
2017-05-21T08:31:56.040Z,2960
2017-05-21T08:32:36.622Z,3035
2017-05-21T08:33:17.255Z,3045
2017-05-21T08:33:57.839Z,3085
2017-05-21T08:34:38.459Z,3180
2017-05-21T08:35:19.055Z,3320
2017-05-21T08:35:59.665Z,3395
2017-05-21T08:36:40.221Z,3410
2017-05-21T08:37:20.803Z,3390
2017-05-21T08:38:01.417Z,3370
2017-05-21T08:38:41.997Z,3330
2017-05-21T08:39:22.615Z,3360
2017-05-21T08:40:03.225Z,3380
2017-05-21T08:40:43.812Z,3400
2017-05-21T08:41:24.404Z,3410
2017-05-21T08:42:05.028Z,3430
2017-05-21T08:42:45.614Z,3450
2017-05-21T08:43:26.235Z,3500
2017-05-21T08:44:06.815Z,3445
2017-05-21T08:44:47.413Z,3435
2017-05-21T08:45:27.997Z,3515
2017-05-21T08:46:08.577Z,3570
2017-05-21T08:46:49.254Z,3495
2017-05-21T08:47:30.027Z,3450
2017-05-21T08:48:10.709Z,3480
2017-05-21T08:48:51.344Z,3495
2017-05-21T08:49:31.984Z,3535
2017-05-21T08:50:12.631Z,3500
2017-05-21T08:50:53.306Z,3490
2017-05-21T08:51:34.019Z,3595
2017-05-21T08:52:14.682Z,3630
2017-05-21T08:52:55.325Z,3620
2017-05-21T08:53:35.936Z,3655
2017-05-21T08:54:16.688Z,3610
2017-05-21T08:54:57.348Z,3575
2017-05-21T08:55:39.709Z,3525
2017-05-21T08:56:20.363Z,3465
2017-05-21T08:57:01.857Z,3480
2017-05-21T08:57:42.517Z,3310
2017-05-21T08:58:23.170Z,3400
2017-05-21T08:59:04.497Z,3500
2017-05-21T08:59:45.169Z,3560
2017-05-21T09:00:25.853Z,3520
2017-05-21T09:01:06.575Z,3525
2017-05-21T09:01:47.166Z,3610
2017-05-21T09:02:27.814Z,3210
2017-05-21T09:03:08.429Z,3185
2017-05-21T09:03:49.035Z,3415
2017-05-21T09:04:29.633Z,3465
2017-05-21T09:05:10.227Z,3680
2017-05-21T09:05:50.812Z,3795
2017-05-21T09:06:31.393Z,3800
2017-05-21T09:07:11.975Z,3750
2017-05-21T09:07:52.547Z,1090
2017-05-21T09:08:33.144Z,955
2017-05-21T09:09:13.733Z,1965
2017-05-21T09:09:54.310Z,1165
2017-05-21T09:10:34.898Z,540
2017-05-21T09:11:15.484Z,815
2017-05-21T09:11:56.078Z,970
2017-05-21T09:12:36.689Z,3615
2017-05-21T09:13:17.269Z,1900
2017-05-21T09:13:57.871Z,1975
2017-05-21T09:14:38.482Z,1535
2017-05-21T09:15:19.068Z,715
2017-05-21T09:15:59.665Z,600
2017-05-21T09:16:40.288Z,685
2017-05-21T09:17:20.913Z,665
2017-05-21T09:18:01.481Z,740
2017-05-21T09:18:42.053Z,670
2017-05-21T09:19:22.627Z,725
2017-05-21T09:20:03.223Z,675
2017-05-21T09:20:43.805Z,630
2017-05-21T09:21:24.395Z,550
2017-05-21T09:22:04.977Z,550
2017-05-21T09:22:45.565Z,550
2017-05-21T09:23:26.169Z,535
2017-05-21T09:24:06.761Z,525
2017-05-21T09:24:47.410Z,540
2017-05-21T09:25:28.085Z,560
2017-05-21T09:26:08.728Z,1165
2017-05-21T09:26:49.394Z,535
2017-05-21T09:27:30.004Z,550
2017-05-21T09:28:10.696Z,615
2017-05-21T09:28:51.374Z,660
2017-05-21T09:29:31.991Z,660
2017-05-21T09:30:12.673Z,715
2017-05-21T09:30:53.315Z,735
2017-05-21T09:31:33.965Z,685
2017-05-21T09:32:14.563Z,715
2017-05-21T09:32:55.177Z,685
2017-05-21T09:33:35.785Z,715
2017-05-21T09:34:16.468Z,1080
2017-05-21T09:34:57.102Z,1535
2017-05-21T09:35:37.744Z,1695
2017-05-21T09:36:18.346Z,1455
2017-05-21T09:36:58.966Z,1010
2017-05-21T09:37:39.569Z,715
2017-05-21T09:38:20.194Z,640
2017-05-21T09:39:00.834Z,625
2017-05-21T09:39:41.442Z,625
2017-05-21T09:40:22.088Z,560
2017-05-21T09:41:02.689Z,545
2017-05-21T09:41:43.310Z,545
2017-05-21T09:42:23.941Z,570
2017-05-21T09:43:04.566Z,655
2017-05-21T09:43:45.183Z,620
2017-05-21T09:44:25.782Z,680
2017-05-21T09:45:06.377Z,725
2017-05-21T09:45:46.967Z,685
2017-05-21T09:46:27.613Z,605
2017-05-21T09:47:08.202Z,665
2017-05-21T09:47:48.797Z,670
2017-05-21T09:48:29.377Z,675
2017-05-21T09:49:09.955Z,670
2017-05-21T09:49:50.541Z,610
2017-05-21T09:50:31.135Z,635
2017-05-21T09:51:11.722Z,630
2017-05-21T09:51:52.311Z,655
2017-05-21T09:52:32.950Z,700
2017-05-21T09:53:13.514Z,655
2017-05-21T09:53:54.091Z,740
2017-05-21T09:54:34.749Z,745
2017-05-21T09:55:15.334Z,710
2017-05-21T09:55:55.933Z,840
2017-05-21T09:56:36.522Z,725
2017-05-21T09:57:17.291Z,735
2017-05-21T09:57:57.885Z,745
2017-05-21T09:58:38.489Z,670
2017-05-21T09:59:19.096Z,635
2017-05-21T09:59:59.727Z,615
2017-05-21T10:00:40.295Z,595
2017-05-21T10:01:20.901Z,570
2017-05-21T10:02:01.487Z,570
2017-05-21T10:02:42.121Z,575
2017-05-21T10:03:22.727Z,595
2017-05-21T10:04:03.310Z,620
2017-05-21T10:04:43.943Z,640
2017-05-21T10:05:24.542Z,610
2017-05-21T10:06:05.123Z,755
2017-05-21T10:06:45.707Z,930
2017-05-21T10:07:26.316Z,1500
2017-05-21T10:08:06.913Z,2280
2017-05-21T10:08:47.503Z,3040
2017-05-21T10:09:28.095Z,3775
2017-05-21T10:10:08.683Z,4260
2017-05-21T10:10:49.259Z,4510
2017-05-21T10:11:29.860Z,4440
2017-05-21T10:12:10.432Z,4645
2017-05-21T10:12:51.014Z,4750
2017-05-21T10:13:31.604Z,3455
2017-05-21T10:14:12.178Z,4580
2017-05-21T10:14:52.768Z,3415
2017-05-21T10:15:33.361Z,1085
2017-05-21T10:16:13.944Z,915
2017-05-21T10:16:54.528Z,985
2017-05-21T10:17:35.120Z,940
2017-05-21T10:18:15.744Z,2630
2017-05-21T10:18:56.357Z,2270
2017-05-21T10:19:36.946Z,990
2017-05-21T10:20:17.554Z,4140
2017-05-21T10:20:58.145Z,4720
2017-05-21T10:21:38.746Z,4845
2017-05-21T10:22:19.336Z,4710
2017-05-21T10:22:59.918Z,4925
2017-05-21T10:23:40.493Z,1620
2017-05-21T10:24:21.090Z,2390
2017-05-21T10:25:01.672Z,1580
2017-05-21T10:25:42.253Z,980
2017-05-21T10:26:22.844Z,1075
2017-05-21T10:27:03.425Z,1095
2017-05-21T10:27:44.007Z,1000
2017-05-21T10:28:24.611Z,3855
2017-05-21T10:29:05.179Z,980
2017-05-21T10:29:45.770Z,865
2017-05-21T10:30:26.377Z,1465
2017-05-21T10:31:06.996Z,1325
2017-05-21T10:31:47.583Z,5200
2017-05-21T10:32:28.190Z,5305
2017-05-21T10:33:08.784Z,1530
2017-05-21T10:33:49.388Z,820
2017-05-21T10:34:29.972Z,895
2017-05-21T10:35:10.575Z,855
2017-05-21T10:35:51.172Z,985
2017-05-21T10:36:31.754Z,1070
2017-05-21T10:37:12.386Z,980
2017-05-21T10:37:52.992Z,825
2017-05-21T10:38:33.609Z,790
2017-05-21T10:39:14.205Z,835
2017-05-21T10:39:54.790Z,925
2017-05-21T10:40:35.424Z,895
2017-05-21T10:41:16.025Z,855
2017-05-21T10:41:56.658Z,870
2017-05-21T10:42:37.272Z,890
2017-05-21T10:43:17.906Z,1490
2017-05-21T10:43:58.485Z,1015
2017-05-21T10:44:39.072Z,1075
2017-05-21T10:45:19.707Z,2965
2017-05-21T10:46:00.284Z,4775
2017-05-21T10:46:40.918Z,4300
2017-05-21T10:47:21.535Z,3485
2017-05-21T10:48:02.136Z,2510
2017-05-21T10:48:42.738Z,1740
2017-05-21T10:49:23.326Z,1135
2017-05-21T10:50:03.935Z,900
2017-05-21T10:50:44.538Z,885
2017-05-21T10:51:25.137Z,885
2017-05-21T10:52:05.741Z,905
2017-05-21T10:52:46.350Z,995
2017-05-21T10:53:26.929Z,940
2017-05-21T10:54:07.508Z,1010
2017-05-21T10:54:48.160Z,1065
2017-05-21T10:55:28.757Z,1015
2017-05-21T10:56:09.392Z,1070
2017-05-21T10:56:49.942Z,1095
2017-05-21T10:57:30.538Z,1100
2017-05-21T10:58:11.118Z,1015
2017-05-21T10:58:51.706Z,1090
2017-05-21T10:59:32.296Z,1175
2017-05-21T11:00:12.868Z,1175
2017-05-21T11:00:53.498Z,1130
2017-05-21T11:01:34.082Z,1235
2017-05-21T11:02:14.662Z,1120
2017-05-21T11:02:55.260Z,1100
2017-05-21T11:03:35.842Z,1040
2017-05-21T11:04:16.431Z,1110
2017-05-21T11:04:57.014Z,1215
2017-05-21T11:05:37.599Z,1210
2017-05-21T11:06:18.191Z,1185
2017-05-21T11:06:58.783Z,1165
2017-05-21T11:07:39.380Z,945
2017-05-21T11:08:19.965Z,1280
2017-05-21T11:09:00.553Z,1680
2017-05-21T11:09:41.142Z,2085
2017-05-21T11:10:21.727Z,2700
2017-05-21T11:11:02.308Z,3320
2017-05-21T11:11:42.894Z,3940
2017-05-21T11:12:23.492Z,2640
2017-05-21T11:13:04.082Z,2360
2017-05-21T11:13:44.683Z,2885
2017-05-21T11:14:25.272Z,4200
2017-05-21T11:15:05.902Z,2660
2017-05-21T11:15:46.436Z,2025
2017-05-21T11:16:27.026Z,1445
2017-05-21T11:17:07.602Z,975
2017-05-21T11:17:48.192Z,795
2017-05-21T11:18:28.772Z,755
2017-05-21T11:19:09.362Z,725
2017-05-21T11:19:49.974Z,790
2017-05-21T11:20:30.566Z,680
2017-05-21T11:21:11.149Z,615
2017-05-21T11:21:51.735Z,545
2017-05-21T11:22:32.316Z,505
2017-05-21T11:23:12.903Z,495
2017-05-21T11:23:53.488Z,505
2017-05-21T11:24:34.077Z,510
2017-05-21T11:25:14.665Z,540
2017-05-21T11:25:55.244Z,630
2017-05-21T11:26:35.833Z,670
2017-05-21T11:27:16.429Z,765
2017-05-21T11:27:56.998Z,975
2017-05-21T11:28:37.582Z,930
2017-05-21T11:29:18.171Z,960
2017-05-21T11:29:58.748Z,740
2017-05-21T11:30:39.339Z,985
2017-05-21T11:31:19.931Z,850
2017-05-21T11:32:00.510Z,935
2017-05-21T11:32:41.098Z,885
2017-05-21T11:33:21.673Z,995
2017-05-21T11:34:02.255Z,985
2017-05-21T11:34:42.832Z,1015
2017-05-21T11:35:23.411Z,865
2017-05-21T11:36:03.992Z,820
2017-05-21T11:36:44.580Z,905
2017-05-21T11:37:25.159Z,930
2017-05-21T11:38:05.746Z,965
2017-05-21T11:38:46.322Z,985
2017-05-21T11:39:26.907Z,965
2017-05-21T11:40:07.501Z,965
2017-05-21T11:40:48.077Z,965
2017-05-21T11:41:28.665Z,970
2017-05-21T11:42:09.254Z,965
2017-05-21T11:42:49.847Z,980
2017-05-21T11:43:30.436Z,980
2017-05-21T11:44:11.010Z,1020
2017-05-21T11:44:51.691Z,1020
2017-05-21T11:45:32.212Z,955
2017-05-21T11:46:12.790Z,940
2017-05-21T11:46:53.380Z,830
2017-05-21T11:47:33.956Z,900
2017-05-21T11:48:14.543Z,900
2017-05-21T11:48:55.132Z,895
2017-05-21T11:49:35.728Z,880
2017-05-21T11:50:16.308Z,865
2017-05-21T11:50:56.910Z,875
2017-05-21T11:51:37.494Z,870
2017-05-21T11:52:18.080Z,880
2017-05-21T11:52:58.674Z,865
2017-05-21T11:53:39.258Z,850
2017-05-21T11:54:19.841Z,845
2017-05-21T11:55:00.418Z,850
2017-05-21T11:55:41.002Z,845
2017-05-21T11:56:21.574Z,840
2017-05-21T11:57:02.154Z,845
2017-05-21T11:57:42.747Z,840
2017-05-21T11:58:23.731Z,830
2017-05-21T11:59:04.316Z,840
2017-05-21T11:59:44.911Z,840
2017-05-21T12:00:25.491Z,785
2017-05-21T12:01:06.527Z,800
2017-05-21T12:01:47.112Z,815
2017-05-21T12:02:27.685Z,830
2017-05-21T12:03:08.270Z,850
2017-05-21T12:03:48.844Z,720
2017-05-21T12:04:29.424Z,865
2017-05-21T12:05:10.006Z,855
2017-05-21T12:05:50.595Z,850
2017-05-21T12:06:31.178Z,855
2017-05-21T12:07:11.769Z,840
2017-05-21T12:07:52.342Z,845
2017-05-21T12:08:32.923Z,860
2017-05-21T12:09:13.499Z,890
2017-05-21T12:09:54.088Z,925
2017-05-21T12:10:34.666Z,915
2017-05-21T12:11:15.240Z,905
2017-05-21T12:11:55.823Z,925
2017-05-21T12:12:36.401Z,920
2017-05-21T12:13:17.023Z,885
2017-05-21T12:13:57.690Z,860
2017-05-21T12:14:38.267Z,840
2017-05-21T12:15:18.848Z,780
2017-05-21T12:15:59.503Z,820
2017-05-21T12:16:40.108Z,825
2017-05-21T12:17:20.676Z,835
2017-05-21T12:18:01.245Z,835
2017-05-21T12:18:41.815Z,845
2017-05-21T12:19:22.395Z,840
2017-05-21T12:20:02.972Z,855
2017-05-21T12:20:43.543Z,925
2017-05-21T12:21:24.123Z,880
2017-05-21T12:22:04.701Z,940
2017-05-21T12:22:45.301Z,935
2017-05-21T12:23:25.897Z,865
2017-05-21T12:24:06.488Z,745
2017-05-21T12:24:47.055Z,700
2017-05-21T12:25:27.630Z,850
2017-05-21T12:26:08.208Z,725
2017-05-21T12:26:48.809Z,925
2017-05-21T12:27:29.402Z,930
2017-05-21T12:28:09.988Z,910
2017-05-21T12:28:50.567Z,740
2017-05-21T12:29:31.147Z,700
2017-05-21T12:30:11.746Z,685
2017-05-21T12:30:52.332Z,690
2017-05-21T12:31:32.908Z,675
2017-05-21T12:32:13.527Z,665
2017-05-21T12:32:54.113Z,665
2017-05-21T12:33:34.699Z,695
2017-05-21T12:34:15.278Z,680
2017-05-21T12:34:55.857Z,720
2017-05-21T12:35:36.440Z,675
2017-05-21T12:36:17.023Z,660
2017-05-21T12:36:57.601Z,660
2017-05-21T12:37:38.187Z,670
2017-05-21T12:38:18.760Z,670
2017-05-21T12:38:59.333Z,680
2017-05-21T12:39:39.916Z,620
2017-05-21T12:40:20.489Z,605
2017-05-21T12:41:01.067Z,605
2017-05-21T12:41:41.647Z,605
2017-05-21T12:42:22.237Z,605
2017-05-21T12:43:02.827Z,625
2017-05-21T12:43:43.446Z,640
2017-05-21T12:44:24.021Z,655
2017-05-21T12:45:04.604Z,730
2017-05-21T12:45:45.184Z,755
2017-05-21T12:46:25.752Z,695
2017-05-21T12:47:06.417Z,695
2017-05-21T12:47:46.999Z,620
2017-05-21T12:48:27.577Z,595
2017-05-21T12:49:08.201Z,585
2017-05-21T12:49:48.792Z,590
2017-05-21T12:50:29.381Z,620
2017-05-21T12:51:09.955Z,695
2017-05-21T12:51:50.531Z,635
2017-05-21T12:52:31.132Z,725
2017-05-21T12:53:11.691Z,715
2017-05-21T12:53:52.269Z,675
2017-05-21T12:54:32.853Z,615
2017-05-21T12:55:13.428Z,565
2017-05-21T12:55:54.029Z,545
2017-05-21T12:56:34.629Z,685
2017-05-21T12:57:15.215Z,720
2017-05-21T12:57:55.817Z,725
2017-05-21T12:58:36.397Z,725
2017-05-21T12:59:16.974Z,715
2017-05-21T12:59:57.584Z,715
2017-05-21T13:00:38.177Z,725
2017-05-21T13:01:18.753Z,750
2017-05-21T13:01:59.347Z,760
2017-05-21T13:02:39.953Z,740
2017-05-21T13:03:20.547Z,720
2017-05-21T13:04:01.137Z,705
2017-05-21T13:04:41.706Z,705
2017-05-21T13:05:22.304Z,690
2017-05-21T13:06:02.887Z,695
2017-05-21T13:06:43.483Z,705
2017-05-21T13:07:24.073Z,710
2017-05-21T13:08:04.641Z,705
2017-05-21T13:08:45.219Z,685
2017-05-21T13:09:25.797Z,685
2017-05-21T13:10:06.373Z,700
2017-05-21T13:10:46.957Z,670
2017-05-21T13:11:27.524Z,650
2017-05-21T13:12:08.103Z,655
2017-05-21T13:12:48.725Z,655
2017-05-21T13:13:29.321Z,665
2017-05-21T13:14:09.913Z,660
2017-05-21T13:14:50.487Z,680
2017-05-21T13:15:31.063Z,695
2017-05-21T13:16:11.637Z,770
2017-05-21T13:16:52.221Z,765
2017-05-21T13:17:32.797Z,725
2017-05-21T13:18:13.369Z,700
2017-05-21T13:18:53.977Z,685
2017-05-21T13:19:34.547Z,690
2017-05-21T13:20:15.140Z,680
2017-05-21T13:20:55.721Z,660
2017-05-21T13:21:36.300Z,665
2017-05-21T13:22:16.907Z,665
2017-05-21T13:22:57.483Z,570
2017-05-21T13:23:38.059Z,600
2017-05-21T13:24:18.642Z,615
2017-05-21T13:24:59.241Z,600
2017-05-21T13:25:39.827Z,580
2017-05-21T13:26:20.416Z,565
2017-05-21T13:27:00.988Z,550
2017-05-21T13:27:41.577Z,535
2017-05-21T13:28:22.156Z,555
2017-05-21T13:29:02.733Z,540
2017-05-21T13:29:43.315Z,530
2017-05-21T13:30:23.898Z,480
2017-05-21T13:31:04.486Z,495
2017-05-21T13:31:45.067Z,500
2017-05-21T13:32:25.642Z,430
2017-05-21T13:33:06.222Z,445
2017-05-21T13:33:46.811Z,410
2017-05-21T13:34:27.389Z,405
2017-05-21T13:35:07.972Z,415
2017-05-21T13:35:48.568Z,425
2017-05-21T13:36:29.168Z,440
2017-05-21T13:37:09.734Z,445
2017-05-21T13:37:50.327Z,455
2017-05-21T13:38:30.912Z,450
2017-05-21T13:39:11.514Z,450
2017-05-21T13:39:52.084Z,450
2017-05-21T13:40:32.673Z,455
2017-05-21T13:41:13.248Z,450
2017-05-21T13:41:53.831Z,440
2017-05-21T13:42:34.423Z,430
2017-05-21T13:43:14.991Z,415
2017-05-21T13:43:55.578Z,415
2017-05-21T13:44:36.157Z,425
2017-05-21T13:45:16.731Z,430
2017-05-21T13:45:57.309Z,440
2017-05-21T13:46:37.891Z,455
2017-05-21T13:47:18.469Z,450
2017-05-21T13:47:59.051Z,465
2017-05-21T13:48:39.645Z,475
2017-05-21T13:49:20.222Z,480
2017-05-21T13:50:00.829Z,495
2017-05-21T13:50:41.417Z,490
2017-05-21T13:51:21.998Z,485
2017-05-21T13:52:02.611Z,480
2017-05-21T13:52:43.183Z,470
2017-05-21T13:53:23.791Z,470
2017-05-21T13:54:04.377Z,470
2017-05-21T13:54:44.973Z,465
2017-05-21T13:55:25.569Z,480
2017-05-21T13:56:06.147Z,475
2017-05-21T13:56:46.724Z,465
2017-05-21T13:57:27.324Z,450
2017-05-21T13:58:07.901Z,450
2017-05-21T13:58:48.487Z,455
2017-05-21T13:59:29.067Z,455
2017-05-21T14:00:09.652Z,450
2017-05-21T14:00:50.240Z,445
2017-05-21T14:01:30.852Z,420
2017-05-21T14:02:11.442Z,415
2017-05-21T14:02:52.028Z,400
2017-05-21T14:03:32.610Z,385
2017-05-21T14:04:13.201Z,370
2017-05-21T14:04:53.789Z,370
2017-05-21T14:05:34.367Z,370
2017-05-21T14:06:14.947Z,365
2017-05-21T14:06:55.522Z,360
2017-05-21T14:07:36.108Z,355
2017-05-21T14:08:16.686Z,345
2017-05-21T14:08:57.263Z,335
2017-05-21T14:09:37.868Z,335
2017-05-21T14:10:18.466Z,330
2017-05-21T14:10:59.080Z,325
2017-05-21T14:11:39.637Z,325
2017-05-21T14:12:20.219Z,320
2017-05-21T14:13:00.804Z,315
2017-05-21T14:13:41.381Z,310
2017-05-21T14:14:21.995Z,310
2017-05-21T14:15:02.621Z,315
2017-05-21T14:15:43.253Z,310
2017-05-21T14:16:23.788Z,305
2017-05-21T14:17:04.368Z,305
2017-05-21T14:17:44.959Z,300
2017-05-21T14:18:25.547Z,300
2017-05-21T14:19:06.157Z,305
2017-05-21T14:19:46.745Z,300
2017-05-21T14:20:27.340Z,300
2017-05-21T14:21:07.916Z,300
2017-05-21T14:21:48.496Z,295
2017-05-21T14:22:29.064Z,295
2017-05-21T14:23:09.649Z,295
2017-05-21T14:23:50.225Z,295
2017-05-21T14:24:30.802Z,300
2017-05-21T14:25:11.399Z,300
2017-05-21T14:25:51.993Z,305
2017-05-21T14:26:32.603Z,310
2017-05-21T14:27:13.180Z,315
2017-05-21T14:27:53.753Z,315
2017-05-21T14:28:34.347Z,315
2017-05-21T14:29:14.948Z,325
2017-05-21T14:29:55.535Z,320
2017-05-21T14:30:36.108Z,330
2017-05-21T14:31:16.708Z,325
2017-05-21T14:31:57.287Z,325
2017-05-21T14:32:37.883Z,325
2017-05-21T14:33:18.466Z,325
2017-05-21T14:33:59.043Z,320
2017-05-21T14:34:39.624Z,320
2017-05-21T14:35:20.211Z,320
2017-05-21T14:36:00.790Z,315
2017-05-21T14:36:41.366Z,320
2017-05-21T14:37:21.937Z,320
2017-05-21T14:38:02.529Z,320
2017-05-21T14:38:43.124Z,320
2017-05-21T14:39:23.713Z,320
2017-05-21T14:40:04.283Z,325
2017-05-21T14:40:44.885Z,325
2017-05-21T14:41:25.443Z,325
2017-05-21T14:42:06.051Z,335
2017-05-21T14:42:46.668Z,340
2017-05-21T14:43:27.249Z,345
2017-05-21T14:44:07.832Z,345
2017-05-21T14:44:48.413Z,345
2017-05-21T14:45:28.997Z,350
2017-05-21T14:46:09.598Z,350
2017-05-21T14:46:50.217Z,350
2017-05-21T14:47:30.809Z,345
2017-05-21T14:48:11.403Z,350
2017-05-21T14:48:51.978Z,355
2017-05-21T14:49:32.558Z,355
2017-05-21T14:50:13.165Z,360
2017-05-21T14:50:53.735Z,360
2017-05-21T14:51:34.308Z,365
2017-05-21T14:52:14.886Z,365
2017-05-21T14:52:55.462Z,375
2017-05-21T14:53:36.039Z,380
2017-05-21T14:54:16.628Z,380
2017-05-21T14:54:57.222Z,380
2017-05-21T14:55:37.796Z,370
2017-05-21T14:56:18.384Z,370
2017-05-21T14:56:58.967Z,370
2017-05-21T14:57:39.549Z,370
2017-05-21T14:58:20.125Z,360
2017-05-21T14:59:00.704Z,360
2017-05-21T14:59:41.291Z,355
2017-05-21T15:00:21.865Z,355
2017-05-21T15:01:02.443Z,345
2017-05-21T15:01:43.052Z,340
2017-05-21T15:02:23.647Z,330
2017-05-21T15:03:04.231Z,325
2017-05-21T15:03:44.811Z,320
2017-05-21T15:04:25.384Z,310
2017-05-21T15:05:05.973Z,305
2017-05-21T15:05:46.562Z,295
2017-05-21T15:06:27.160Z,290
2017-05-21T15:07:07.753Z,290
2017-05-21T15:07:48.348Z,280
2017-05-21T15:08:29.017Z,280
2017-05-21T15:09:11.568Z,270
2017-05-21T15:09:52.151Z,270
2017-05-21T15:10:32.731Z,275
2017-05-21T15:11:13.358Z,275
2017-05-21T15:11:53.941Z,270
2017-05-21T15:12:34.599Z,270
2017-05-21T15:13:15.138Z,270
2017-05-21T15:13:56.450Z,270
2017-05-21T15:14:40.028Z,270
2017-05-21T15:15:20.610Z,270
2017-05-21T15:16:01.187Z,270
2017-05-21T15:16:42.037Z,270
2017-05-21T15:17:22.825Z,275
2017-05-21T15:18:03.472Z,270
2017-05-21T15:18:44.345Z,275
2017-05-21T15:19:24.960Z,275
2017-05-21T15:20:05.552Z,270
2017-05-21T15:20:46.143Z,270
2017-05-21T15:21:26.811Z,270
2017-05-21T15:22:07.450Z,270
2017-05-21T15:22:48.061Z,265
2017-05-21T15:23:28.651Z,265
2017-05-21T15:24:09.242Z,265
2017-05-21T15:24:49.937Z,265
2017-05-21T15:25:30.556Z,260
2017-05-21T15:26:11.225Z,260
2017-05-21T15:26:51.865Z,260
2017-05-21T15:27:32.545Z,260
2017-05-21T15:28:13.220Z,260
2017-05-21T15:28:53.942Z,260
2017-05-21T15:29:34.585Z,260
2017-05-21T15:30:15.349Z,260
2017-05-21T15:30:55.939Z,260
2017-05-21T15:31:36.553Z,270
2017-05-21T15:32:17.241Z,275
2017-05-21T15:32:57.956Z,280
2017-05-21T15:33:38.597Z,275
2017-05-21T15:34:19.264Z,275
2017-05-21T15:34:59.902Z,265
2017-05-21T15:35:40.622Z,265
2017-05-21T15:36:21.312Z,265
2017-05-21T15:37:01.945Z,265
2017-05-21T15:37:42.551Z,260
2017-05-21T15:38:23.135Z,260
2017-05-21T15:39:03.752Z,260
2017-05-21T15:39:44.451Z,260
2017-05-21T15:40:25.093Z,255
2017-05-21T15:43:00.358Z,255
2017-05-21T15:43:41.029Z,255
2017-05-21T15:44:21.844Z,255
2017-05-21T15:45:02.623Z,255
2017-05-21T15:45:43.370Z,255
2017-05-21T15:46:24.209Z,250
2017-05-21T15:47:05.508Z,255
2017-05-21T15:47:46.781Z,310
2017-05-21T15:48:28.103Z,445
2017-05-21T15:49:09.158Z,600
2017-05-21T15:49:50.063Z,570
2017-05-21T15:50:31.249Z,365
2017-05-21T15:51:12.224Z,250
2017-05-21T15:51:53.268Z,230
2017-05-21T15:52:34.173Z,220
2017-05-21T15:53:15.291Z,215
2017-05-21T15:53:56.335Z,220
2017-05-21T15:54:37.256Z,220